createdAt,value
2023-04-16T00:00:45.207Z,3.90
2023-04-16T00:03:48.333Z,4.20
2023-04-16T00:06:51.559Z,4.40
2023-04-16T00:09:54.353Z,6.40
2023-04-16T00:12:57.337Z,6.88
2023-04-16T00:16:00.233Z,5.13
2023-04-16T00:19:03.079Z,7.10
2023-04-16T00:22:06.465Z,14.73
2023-04-16T00:25:14.462Z,6.55
2023-04-16T00:28:17.304Z,4.80
2023-04-16T00:31:31.090Z,4.28
2023-04-16T00:34:34.258Z,4.22
2023-04-16T00:37:37.334Z,2.50
2023-04-16T00:40:40.485Z,2.40
2023-04-16T00:43:43.670Z,2.10
2023-04-16T00:46:46.921Z,2.70
2023-04-16T00:49:50.615Z,3.40
2023-04-16T00:52:53.727Z,3.00
2023-04-16T00:55:57.826Z,3.00
2023-04-16T00:59:01.250Z,2.92
2023-04-16T01:02:04.371Z,3.13
2023-04-16T01:05:07.680Z,3.42
2023-04-16T01:08:21.797Z,3.50
2023-04-16T01:11:25.067Z,3.80
2023-04-16T01:14:28.053Z,3.92
2023-04-16T01:17:30.961Z,3.47
2023-04-16T01:20:36.202Z,3.88
2023-04-16T01:23:39.252Z,4.10
2023-04-16T01:26:42.310Z,4.38
2023-04-16T01:29:45.226Z,4.45
2023-04-16T01:32:49.245Z,3.97
2023-04-16T01:35:52.165Z,3.35
2023-04-16T01:38:55.138Z,3.10
2023-04-16T01:41:58.011Z,2.85
2023-04-16T01:45:01.153Z,2.60
2023-04-16T01:48:04.595Z,2.67
2023-04-16T01:51:07.381Z,2.65
2023-04-16T01:54:10.268Z,2.40
2023-04-16T01:57:13.150Z,1.90
2023-04-16T02:00:16.157Z,2.15
2023-04-16T02:03:24.927Z,1.88
2023-04-16T02:06:29.311Z,1.63
2023-04-16T02:09:34.188Z,2.00
2023-04-16T02:12:37.185Z,1.90
2023-04-16T02:15:40.102Z,1.77
2023-04-16T02:18:42.902Z,1.83
2023-04-16T02:21:46.399Z,2.10
2023-04-16T02:24:50.849Z,1.70
2023-04-16T02:27:53.581Z,2.00
2023-04-16T02:31:11.179Z,1.98
2023-04-16T02:34:19.376Z,1.85
2023-04-16T02:37:22.159Z,1.83
2023-04-16T02:40:25.788Z,1.67
2023-04-16T02:43:28.807Z,1.80
2023-04-16T02:46:32.080Z,1.48
2023-04-16T02:49:36.021Z,1.63
2023-04-16T02:52:39.000Z,2.00
2023-04-16T02:55:41.852Z,1.67
2023-04-16T02:58:44.856Z,1.90
2023-04-16T03:01:48.037Z,1.90
2023-04-16T03:04:51.021Z,2.03
2023-04-16T03:07:56.876Z,2.30
2023-04-16T03:10:59.669Z,1.87
2023-04-16T03:14:02.502Z,2.35
2023-04-16T03:17:05.552Z,2.10
2023-04-16T03:20:09.443Z,2.20
2023-04-16T03:23:12.392Z,2.22
2023-04-16T03:26:15.415Z,2.40
2023-04-16T03:29:18.588Z,1.90
2023-04-16T03:32:21.619Z,2.20
2023-04-16T03:35:24.522Z,1.83
2023-04-16T03:38:27.481Z,2.10
2023-04-16T03:41:32.676Z,1.77
2023-04-16T03:44:36.413Z,2.00
2023-04-16T03:47:39.255Z,1.98
2023-04-16T03:50:47.097Z,2.10
2023-04-16T03:53:51.753Z,1.90
2023-04-16T03:56:55.082Z,2.23
2023-04-16T03:59:58.148Z,2.05
2023-04-16T04:03:03.803Z,2.25
2023-04-16T04:06:08.889Z,2.05
2023-04-16T04:09:12.025Z,2.10
2023-04-16T04:12:15.091Z,2.20
2023-04-16T04:15:19.993Z,1.80
2023-04-16T04:18:23.396Z,2.10
2023-04-16T04:21:28.521Z,2.05
2023-04-16T04:24:31.420Z,1.83
2023-04-16T04:27:34.625Z,1.70
2023-04-16T04:30:38.237Z,1.90
2023-04-16T04:33:42.062Z,1.90
2023-04-16T04:36:44.883Z,1.80
2023-04-16T04:39:49.429Z,1.80
2023-04-16T04:42:53.046Z,1.60
2023-04-16T04:45:58.448Z,1.33
2023-04-16T04:49:03.764Z,1.38
2023-04-16T04:52:08.447Z,1.40
2023-04-16T04:55:11.578Z,1.33
2023-04-16T04:58:14.542Z,1.00
2023-04-16T05:01:18.674Z,1.30
2023-04-16T05:04:21.477Z,1.58
2023-04-16T05:07:24.239Z,1.58
2023-04-16T05:10:27.389Z,1.63
2023-04-16T05:13:30.166Z,1.97
2023-04-16T05:16:32.949Z,2.20
2023-04-16T05:19:35.844Z,2.33
2023-04-16T05:22:38.929Z,2.60
2023-04-16T05:25:41.808Z,2.58
2023-04-16T05:28:44.641Z,3.27
2023-04-16T05:31:47.489Z,2.90
2023-04-16T05:34:50.404Z,3.17
2023-04-16T05:37:53.383Z,3.08
2023-04-16T05:40:56.317Z,2.70
2023-04-16T05:43:59.142Z,3.27
2023-04-16T05:47:02.056Z,3.70
2023-04-16T05:50:05.197Z,3.10
2023-04-16T05:53:09.467Z,3.08
2023-04-16T05:56:12.353Z,2.60
2023-04-16T05:59:15.166Z,2.40
2023-04-16T06:02:18.106Z,2.50
2023-04-16T06:05:20.979Z,2.35
2023-04-16T06:08:24.053Z,2.47
2023-04-16T06:11:27.894Z,2.30
2023-04-16T06:14:30.918Z,2.20
2023-04-16T06:17:33.902Z,2.13
2023-04-16T06:20:36.973Z,2.53
2023-04-16T06:23:40.020Z,2.30
2023-04-16T06:26:42.934Z,2.42
2023-04-16T06:29:45.801Z,2.67
2023-04-16T06:32:49.784Z,2.78
2023-04-16T06:35:52.572Z,2.60
2023-04-16T06:38:55.652Z,2.60
2023-04-16T06:41:58.493Z,2.90
2023-04-16T06:45:01.682Z,3.00
2023-04-16T06:48:05.380Z,3.28
2023-04-16T06:51:08.507Z,3.60
2023-04-16T06:54:11.300Z,3.38
2023-04-16T06:57:14.152Z,4.47
2023-04-16T07:00:19.488Z,3.70
2023-04-16T07:03:22.818Z,4.00
2023-04-16T07:06:26.985Z,3.80
2023-04-16T07:09:29.853Z,3.92
2023-04-16T07:12:33.558Z,3.45
2023-04-16T07:15:36.296Z,3.80
2023-04-16T07:18:39.311Z,3.88
2023-04-16T07:21:44.922Z,3.60
2023-04-16T07:24:47.856Z,4.07
2023-04-16T07:27:50.619Z,3.92
2023-04-16T07:30:53.406Z,4.30
2023-04-16T07:33:56.196Z,4.30
2023-04-16T07:36:59.057Z,4.13
2023-04-16T07:40:02.034Z,4.75
2023-04-16T07:43:04.835Z,4.78
2023-04-16T07:46:07.799Z,5.00
2023-04-16T07:49:10.867Z,5.40
2023-04-16T07:52:14.067Z,6.22
2023-04-16T07:55:16.954Z,6.53
2023-04-16T07:58:19.743Z,6.63
2023-04-16T08:01:22.589Z,6.23
2023-04-16T08:04:26.423Z,6.80
2023-04-16T08:07:29.474Z,7.50
2023-04-16T08:10:33.423Z,6.93
2023-04-16T08:13:36.249Z,7.65
2023-04-16T08:16:40.769Z,7.77
2023-04-16T08:19:45.286Z,8.40
2023-04-16T08:22:49.234Z,7.93
2023-04-16T08:25:53.050Z,7.80
2023-04-16T08:28:56.032Z,8.63
2023-04-16T08:32:00.000Z,8.50
2023-04-16T08:35:03.047Z,8.57
2023-04-16T08:38:07.633Z,9.00
2023-04-16T08:41:13.386Z,9.40
2023-04-16T08:44:49.275Z,8.75
2023-04-16T08:47:53.229Z,9.17
2023-04-16T08:50:56.634Z,8.95
2023-04-16T08:54:04.849Z,8.90
2023-04-16T08:57:12.038Z,9.45
2023-04-16T09:00:16.860Z,8.85
2023-04-16T09:03:22.507Z,8.80
2023-04-16T09:06:28.450Z,9.10
2023-04-16T09:09:33.386Z,8.48
2023-04-16T09:12:40.211Z,8.38
2023-04-16T09:15:46.073Z,8.45
2023-04-16T09:18:48.969Z,8.03
2023-04-16T09:21:51.905Z,8.27
2023-04-16T09:24:54.753Z,8.15
2023-04-16T09:27:57.534Z,8.18
2023-04-16T09:31:17.425Z,8.40
2023-04-16T09:34:21.190Z,7.93
2023-04-16T09:37:24.995Z,6.90
2023-04-16T09:40:30.663Z,7.57
2023-04-16T09:43:33.562Z,7.07
2023-04-16T09:46:45.546Z,6.90
2023-04-16T09:49:48.627Z,7.17
2023-04-16T09:52:51.901Z,7.03
2023-04-16T09:56:01.568Z,6.78
2023-04-16T09:59:04.405Z,6.78
2023-04-16T10:02:14.514Z,7.15
2023-04-16T10:05:20.525Z,6.50
2023-04-16T10:08:24.289Z,7.20
2023-04-16T10:11:27.387Z,6.68
2023-04-16T10:14:30.109Z,6.65
2023-04-16T10:17:33.532Z,6.30
2023-04-16T10:20:37.415Z,6.93
2023-04-16T10:23:41.713Z,6.90
2023-04-16T10:26:45.449Z,6.63
2023-04-16T10:29:49.499Z,6.40
2023-04-16T10:32:52.992Z,6.70
2023-04-16T10:36:12.076Z,5.57
2023-04-16T10:39:19.072Z,5.60
2023-04-16T10:42:22.083Z,5.35
2023-04-16T10:45:37.784Z,4.90
2023-04-16T10:48:49.591Z,5.20
2023-04-16T10:51:58.862Z,5.47
2023-04-16T10:55:01.570Z,5.65
2023-04-16T10:58:27.605Z,5.18
2023-04-16T11:01:32.716Z,4.82
2023-04-16T11:04:37.811Z,4.70
2023-04-16T11:07:49.563Z,5.03
2023-04-16T11:10:53.420Z,4.40
2023-04-16T11:13:57.222Z,4.63
2023-04-16T11:17:03.989Z,4.68
2023-04-16T11:20:20.492Z,5.07
2023-04-16T11:23:23.815Z,4.43
2023-04-16T11:26:30.872Z,4.55
2023-04-16T11:29:34.281Z,4.72
2023-04-16T11:32:40.488Z,4.68
2023-04-16T11:35:43.722Z,4.70
2023-04-16T11:38:47.388Z,4.40
2023-04-16T11:41:52.670Z,3.95
2023-04-16T11:44:57.081Z,4.50
2023-04-16T11:48:00.045Z,4.25
2023-04-16T11:51:03.244Z,4.47
2023-04-16T11:54:08.066Z,4.27
2023-04-16T11:57:13.560Z,4.20
2023-04-16T12:00:16.697Z,5.07
2023-04-16T12:03:19.670Z,5.63
2023-04-16T12:06:24.336Z,7.32
2023-04-16T12:09:27.469Z,6.80
2023-04-16T12:12:32.620Z,6.45
2023-04-16T12:15:49.830Z,6.20
2023-04-16T12:19:05.756Z,5.90
2023-04-16T12:22:08.491Z,6.68
2023-04-16T12:25:12.879Z,6.90
2023-04-16T12:28:26.693Z,6.60
2023-04-16T12:31:38.743Z,6.47
2023-04-16T12:34:51.742Z,7.07
2023-04-16T12:37:54.538Z,6.30
2023-04-16T12:40:58.571Z,5.87
2023-04-16T12:44:12.931Z,5.75
2023-04-16T12:47:15.884Z,5.60
2023-04-16T12:50:18.880Z,5.63
2023-04-16T12:53:21.807Z,4.70
2023-04-16T12:56:24.799Z,3.93
2023-04-16T12:59:28.024Z,3.60
2023-04-16T13:02:32.456Z,4.00
2023-04-16T13:05:35.526Z,4.90
2023-04-16T13:08:38.451Z,4.90
2023-04-16T13:11:41.889Z,4.50
2023-04-16T13:14:45.305Z,5.15
2023-04-16T13:17:48.218Z,4.32
2023-04-16T13:20:51.212Z,4.25
2023-04-16T13:23:54.658Z,4.53
2023-04-16T13:26:57.548Z,4.63
2023-04-16T13:30:00.582Z,4.10
2023-04-16T13:33:03.879Z,4.35
2023-04-16T13:36:07.103Z,4.68
2023-04-16T13:39:13.070Z,4.15
2023-04-16T13:42:15.834Z,4.10
2023-04-16T13:45:20.616Z,4.07
2023-04-16T13:48:23.614Z,4.40
2023-04-16T13:51:27.794Z,5.00
2023-04-16T13:54:30.745Z,4.25
2023-04-16T13:57:33.906Z,4.70
2023-04-16T14:00:37.678Z,4.70
2023-04-16T14:03:42.067Z,4.75
2023-04-16T14:06:45.034Z,4.35
2023-04-16T14:09:48.001Z,3.83
2023-04-16T14:12:51.552Z,3.40
2023-04-16T14:15:55.001Z,3.13
2023-04-16T14:19:00.377Z,3.05
2023-04-16T14:22:03.235Z,3.55
2023-04-16T14:25:07.234Z,3.40
2023-04-16T14:28:10.124Z,3.43
2023-04-16T14:31:13.171Z,3.60
2023-04-16T14:34:17.105Z,3.58
2023-04-16T14:37:20.333Z,3.95
2023-04-16T14:40:23.504Z,4.05
2023-04-16T14:43:27.378Z,3.67
2023-04-16T14:46:30.669Z,3.28
2023-04-16T14:49:34.533Z,3.83
2023-04-16T14:52:37.712Z,3.30
2023-04-16T14:55:40.744Z,3.70
2023-04-16T14:58:43.792Z,3.20
2023-04-16T15:01:47.398Z,3.28
2023-04-16T15:04:50.487Z,3.40
2023-04-16T15:07:53.886Z,3.50
2023-04-16T15:10:57.093Z,3.63
2023-04-16T15:14:00.002Z,4.00
2023-04-16T15:17:03.474Z,3.55
2023-04-16T15:20:08.364Z,4.60
2023-04-16T15:23:11.192Z,4.60
2023-04-16T15:26:14.410Z,4.00
2023-04-16T15:29:17.583Z,3.53
2023-04-16T15:32:20.618Z,3.55
2023-04-16T15:35:23.736Z,3.70
2023-04-16T15:38:26.947Z,3.80
2023-04-16T15:41:32.110Z,3.63
2023-04-16T15:44:35.147Z,3.70
2023-04-16T15:47:40.173Z,3.85
2023-04-16T15:50:44.786Z,4.30
2023-04-16T15:53:49.603Z,4.40
2023-04-16T15:56:52.667Z,3.88
2023-04-16T16:00:06.606Z,3.73
2023-04-16T16:03:11.188Z,3.88
2023-04-16T16:06:14.225Z,4.28
2023-04-16T16:09:17.511Z,3.60
2023-04-16T16:12:20.535Z,3.50
2023-04-16T16:15:23.554Z,2.83
2023-04-16T16:18:26.529Z,3.15
2023-04-16T16:21:32.930Z,3.40
2023-04-16T16:24:35.958Z,5.05
2023-04-16T16:27:40.750Z,6.05
2023-04-16T16:30:43.812Z,7.53
2023-04-16T16:33:47.016Z,7.80
2023-04-16T16:36:50.228Z,5.93
2023-04-16T16:39:53.201Z,4.53
2023-04-16T16:42:56.279Z,3.88
2023-04-16T16:45:59.524Z,3.80
2023-04-16T16:49:05.332Z,3.53
2023-04-16T16:52:08.406Z,2.90
2023-04-16T16:55:11.714Z,3.08
2023-04-16T16:58:14.584Z,2.40
2023-04-16T17:01:18.104Z,2.87
2023-04-16T17:04:21.264Z,3.20
2023-04-16T17:07:24.185Z,3.10
2023-04-16T17:10:27.190Z,2.70
2023-04-16T17:13:32.810Z,2.63
2023-04-16T17:16:36.206Z,2.40
2023-04-16T17:19:39.313Z,2.60
2023-04-16T17:22:42.996Z,6.18
2023-04-16T17:25:46.298Z,7.10
2023-04-16T17:28:51.127Z,7.38
2023-04-16T17:31:54.404Z,8.60
2023-04-16T17:34:57.573Z,11.40
2023-04-16T17:38:01.342Z,12.45
2023-04-16T17:41:04.508Z,10.13
2023-04-16T17:44:09.921Z,8.40
2023-04-16T17:47:14.766Z,4.87
2023-04-16T17:50:17.784Z,5.25
2023-04-16T17:53:22.239Z,6.75
2023-04-16T17:56:25.207Z,6.50
2023-04-16T17:59:28.410Z,8.77
2023-04-16T18:02:31.837Z,10.23
2023-04-16T18:05:35.155Z,9.27
2023-04-16T18:08:38.386Z,10.13
2023-04-16T18:11:42.980Z,8.27
2023-04-16T18:14:46.313Z,7.30
2023-04-16T18:17:49.377Z,5.80
2023-04-16T18:20:52.954Z,5.78
2023-04-16T18:23:56.054Z,6.43
2023-04-16T18:26:59.128Z,6.25
2023-04-16T18:30:04.427Z,6.28
2023-04-16T18:33:34.249Z,5.90
2023-04-16T18:36:31.372Z,6.53
2023-04-16T18:39:34.468Z,5.85
2023-04-16T18:42:37.451Z,6.63
2023-04-16T18:45:41.918Z,6.82
2023-04-16T18:48:45.951Z,6.83
2023-04-16T18:51:48.947Z,5.28
2023-04-16T18:54:52.095Z,6.28
2023-04-16T18:57:55.386Z,5.25
2023-04-16T19:00:59.261Z,4.70
2023-04-16T19:04:03.434Z,4.70
2023-04-16T19:07:06.511Z,4.78
2023-04-16T19:10:09.876Z,4.57
2023-04-16T19:13:13.188Z,4.30
2023-04-16T19:16:17.163Z,4.28
2023-04-16T19:19:21.978Z,3.87
2023-04-16T19:22:25.612Z,3.67
2023-04-16T19:25:28.571Z,3.95
2023-04-16T19:28:31.557Z,4.03
2023-04-16T19:31:35.206Z,3.90
2023-04-16T19:34:38.041Z,3.93
2023-04-16T19:37:41.328Z,3.70
2023-04-16T19:40:46.030Z,3.63
2023-04-16T19:43:49.514Z,3.30
2023-04-16T19:46:52.744Z,3.60
2023-04-16T19:49:55.887Z,3.80
2023-04-16T19:52:59.045Z,5.00
2023-04-16T19:56:02.206Z,5.38
2023-04-16T19:59:05.261Z,5.10
2023-04-16T20:02:08.619Z,5.88
2023-04-16T20:05:11.773Z,4.70
2023-04-16T20:08:15.024Z,5.13
2023-04-16T20:11:18.315Z,5.30
2023-04-16T20:14:21.184Z,6.15
2023-04-16T20:17:24.501Z,6.43
2023-04-16T20:20:27.664Z,7.17
2023-04-16T20:23:30.989Z,8.52
2023-04-16T20:26:34.370Z,9.35
2023-04-16T20:29:37.344Z,9.10
2023-04-16T20:32:40.079Z,9.65
2023-04-16T20:35:42.917Z,10.43
2023-04-16T20:38:46.791Z,10.77
2023-04-16T20:41:57.281Z,11.10
2023-04-16T20:45:00.917Z,10.75
2023-04-16T20:48:08.086Z,9.70
2023-04-16T20:51:11.113Z,10.37
2023-04-16T20:54:13.890Z,10.05
2023-04-16T20:57:16.764Z,10.10
2023-04-16T21:00:19.840Z,10.77
2023-04-16T21:03:23.169Z,8.93
2023-04-16T21:06:26.045Z,10.20
2023-04-16T21:09:29.823Z,9.35
2023-04-16T21:12:32.702Z,9.05
2023-04-16T21:15:37.084Z,9.63
2023-04-16T21:18:40.022Z,8.27
2023-04-16T21:21:42.878Z,8.13
2023-04-16T21:24:45.888Z,8.10
2023-04-16T21:27:48.838Z,7.70
2023-04-16T21:30:52.493Z,6.85
2023-04-16T21:33:55.542Z,6.78
2023-04-16T21:36:58.409Z,6.40
2023-04-16T21:40:01.243Z,6.53
2023-04-16T21:43:04.017Z,6.43
2023-04-16T21:46:06.757Z,5.40
2023-04-16T21:49:09.742Z,5.35
2023-04-16T21:52:18.363Z,5.80
2023-04-16T21:55:21.371Z,5.45
2023-04-16T21:58:25.869Z,4.90
2023-04-16T22:01:28.820Z,5.13
2023-04-16T22:04:38.736Z,4.68
2023-04-16T22:07:41.960Z,4.93
2023-04-16T22:10:44.777Z,4.97
2023-04-16T22:13:47.846Z,4.63
2023-04-16T22:16:51.838Z,4.50
2023-04-16T22:19:55.348Z,3.70
2023-04-16T22:22:58.938Z,3.97
2023-04-16T22:26:03.111Z,3.88
2023-04-16T22:29:06.830Z,3.95
2023-04-16T22:32:09.903Z,3.90
2023-04-16T22:35:13.127Z,3.55
2023-04-16T22:38:16.615Z,3.93
2023-04-16T22:41:19.553Z,3.50
2023-04-16T22:44:22.359Z,3.88
2023-04-16T22:47:25.360Z,3.92
2023-04-16T22:50:28.719Z,4.10
2023-04-16T22:53:31.679Z,3.43
2023-04-16T22:56:34.429Z,3.67
2023-04-16T22:59:37.265Z,3.65
2023-04-16T23:02:40.180Z,3.88
2023-04-16T23:05:43.021Z,3.83
2023-04-16T23:08:45.776Z,3.80
2023-04-16T23:11:49.151Z,3.63
2023-04-16T23:14:53.263Z,3.60
2023-04-16T23:17:56.256Z,4.50
2023-04-16T23:20:59.171Z,4.00
2023-04-16T23:24:02.175Z,4.17
2023-04-16T23:27:05.066Z,3.60
2023-04-16T23:30:08.491Z,3.72
2023-04-16T23:33:14.647Z,3.95
2023-04-16T23:36:17.547Z,4.03
2023-04-16T23:39:20.639Z,3.87
2023-04-16T23:42:23.686Z,3.30
2023-04-16T23:45:26.639Z,4.18
2023-04-16T23:48:29.484Z,3.72
2023-04-16T23:51:32.413Z,3.70
2023-04-16T23:54:35.293Z,3.73
2023-04-16T23:57:38.052Z,3.95
